Time;durP1;ratioP1;P1;durP2;ratioP2;P2;SDS_P1;SDS_P2;PMS_P1;PMS_P2;Temp;Humidity;BMP_temperature;BMP_pressure;BME280_temperature;BME280_humidity;BME280_pressure;Samples;Min_cycle;Max_cycle;Signal;HPM_P1;HPM_P2
2023/01/15 00:01:37;;;;;;;8.40;2.33;;;;;;;;;;4941302;29;20151;-91
2023/01/15 00:04:05;;;;;;;7.68;2.15;;;;;;;;;;4941704;29;20504;-89
2023/01/15 00:06:31;;;;;;;11.18;2.25;;;;;;;;;;4926295;29;20089;-90
2023/01/15 00:08:58;;;;;;;8.60;2.20;;;;;;;;;;4925354;28;20047;-91
2023/01/15 00:11:24;;;;;;;9.98;2.28;;;;;;;;;;4925593;28;20043;-90
2023/01/15 00:13:50;;;;;;;14.55;3.60;;;;;;;;;;4925474;28;20047;-91
2023/01/15 00:16:18;;;;;;;7.82;3.13;;;;;;;;;;4925419;29;20043;-92
2023/01/15 00:18:48;;;;;;;7.18;2.15;;;;;;;;;;4925568;29;20444;-89
2023/01/15 00:21:14;;;;;;;9.13;1.83;;;;;;;;;;4925185;29;20047;-89
2023/01/15 00:29:12;;;;;;;10.57;2.42;;;;;;;;;;4940663;28;20555;-89
2023/01/15 00:31:38;;;;;;;11.05;2.50;;;;;;;;;;4924640;29;20047;-90
2023/01/15 00:34:04;;;;;;;8.65;2.35;;;;;;;;;;4925185;29;20079;-90
2023/01/15 00:36:31;;;;;;;10.07;2.42;;;;;;;;;;4924890;29;20437;-90
2023/01/15 00:38:57;;;;;;;5.80;1.92;;;;;;;;;;4924546;29;20047;-90
2023/01/15 00:41:23;;;;;;;6.63;2.10;;;;;;;;;;4940425;29;20047;-89
2023/01/15 00:43:51;;;;;;;9.90;1.77;;;;;;;;;;4940306;29;20047;-91
2023/01/15 00:46:18;;;;;;;16.05;2.83;;;;;;;;;;4924733;28;20058;-89
2023/01/15 00:48:44;;;;;;;10.40;2.10;;;;;;;;;;4940945;29;20047;-91
2023/01/15 00:51:10;;;;;;;9.00;3.10;;;;;;;;;;4940582;28;20047;-90
2023/01/15 00:53:36;;;;;;;9.73;3.30;;;;;;;;;;4940569;29;20047;-91
2023/01/15 00:56:02;;;;;;;12.77;2.75;;;;;;;;;;4940917;28;20098;-90
2023/01/15 00:58:28;;;;;;;5.72;2.25;;;;;;;;;;4940565;28;20079;-92
2023/01/15 01:00:55;;;;;;;5.32;2.20;;;;;;;;;;4924683;29;20436;-90
2023/01/15 01:03:22;;;;;;;9.13;1.77;;;;;;;;;;4940429;29;20499;-90
2023/01/15 01:05:48;;;;;;;9.18;2.13;;;;;;;;;;4940368;28;20118;-90
2023/01/15 01:08:14;;;;;;;9.10;2.63;;;;;;;;;;4924796;29;20488;-92
2023/01/15 01:10:40;;;;;;;6.90;1.98;;;;;;;;;;4940138;28;20516;-90
2023/01/15 01:13:06;;;;;;;6.70;1.83;;;;;;;;;;4940302;29;20488;-90
2023/01/15 01:15:33;;;;;;;15.30;2.33;;;;;;;;;;4940174;28;20404;-92
2023/01/15 01:17:59;;;;;;;12.77;2.30;;;;;;;;;;4924786;29;20051;-92
2023/01/15 01:20:25;;;;;;;5.05;1.65;;;;;;;;;;4924463;28;20062;-92
2023/01/15 01:22:52;;;;;;;7.57;1.70;;;;;;;;;;4940602;29;20135;-93
2023/01/15 01:25:18;;;;;;;10.23;2.38;;;;;;;;;;4941274;29;20043;-90
2023/01/15 01:27:44;;;;;;;10.88;2.67;;;;;;;;;;4924074;28;20051;-90
2023/01/15 01:30:11;;;;;;;6.30;2.20;;;;;;;;;;4939801;29;20043;-90
2023/01/15 01:32:38;;;;;;;7.65;2.30;;;;;;;;;;4923643;28;20102;-91
2023/01/15 01:35:04;;;;;;;9.30;3.00;;;;;;;;;;4924113;28;20050;-89
2023/01/15 01:37:30;;;;;;;9.75;2.55;;;;;;;;;;4924001;28;20102;-90
2023/01/15 01:39:56;;;;;;;13.30;3.05;;;;;;;;;;4939383;29;20047;-89
2023/01/15 01:42:23;;;;;;;3.58;1.23;;;;;;;;;;4923481;28;20047;-90
2023/01/15 01:44:49;;;;;;;7.85;2.13;;;;;;;;;;4940113;29;20050;-91
2023/01/15 01:47:25;;;;;;;14.10;2.60;;;;;;;;;;4923019;29;20134;-90
2023/01/15 01:49:53;;;;;;;4.10;1.45;;;;;;;;;;4923536;29;20047;-91
2023/01/15 01:52:21;;;;;;;12.10;2.53;;;;;;;;;;4923339;29;20043;-91
2023/01/15 01:54:48;;;;;;;5.47;2.28;;;;;;;;;;4938960;29;20050;-90
2023/01/15 01:57:15;;;;;;;17.77;3.20;;;;;;;;;;4939601;28;20066;-90
2023/01/15 01:59:42;;;;;;;12.63;2.42;;;;;;;;;;4939085;29;20094;-89
2023/01/15 02:02:08;;;;;;;8.38;3.08;;;;;;;;;;4938922;29;20054;-93
2023/01/15 02:04:34;;;;;;;6.28;2.70;;;;;;;;;;4938901;29;20134;-92
2023/01/15 02:07:00;;;;;;;15.40;3.95;;;;;;;;;;4939181;29;20480;-90
2023/01/15 02:09:26;;;;;;;12.18;2.47;;;;;;;;;;4939087;28;20050;-91
2023/01/15 02:11:56;;;;;;;7.05;1.85;;;;;;;;;;4939026;28;20114;-90
2023/01/15 02:14:26;;;;;;;9.80;3.45;;;;;;;;;;4922780;29;20086;-90
2023/01/15 02:16:56;;;;;;;10.90;2.53;;;;;;;;;;4940251;28;20500;-96
2023/01/15 02:19:22;;;;;;;6.30;2.05;;;;;;;;;;4923735;28;20047;-94
2023/01/15 02:22:25;;;;;;;10.32;2.15;;;6.60;99.90;;;;;;4924113;29;20504;-95
2023/01/15 02:25:01;;;;;;;9.63;2.22;;;;;;;;;;4923810;28;20047;-96
2023/01/15 02:27:27;;;;;;;8.40;1.38;;;;;;;;;;4923899;29;20114;-96
2023/01/15 02:30:08;;;;;;;12.10;2.92;;;;;;;;;;4924005;28;20054;-95
2023/01/15 02:32:34;;;;;;;8.00;2.42;;;;;;;;;;4923454;28;20078;-95
2023/01/15 02:35:03;;;;;;;7.03;1.60;;;;;;;;;;4923656;29;20047;-95
2023/01/15 02:37:31;;;;;;;8.63;2.42;;;;;;;;;;4924103;29;20167;-96
2023/01/15 02:39:59;;;;;;;12.60;2.50;;;;;;;;;;4923472;29;20488;-96
2023/01/15 02:42:26;;;;;;;10.85;4.03;;;;;;;;;;4922625;28;20051;-92
2023/01/15 02:44:54;;;;;;;10.38;2.47;;;;;;;;;;4938841;28;20049;-92
2023/01/15 02:47:23;;;;;;;6.05;2.08;;;;;;;;;;4927851;29;20027;-92
2023/01/15 02:49:51;;;;;;;9.20;2.63;;;;;;;;;;4922926;28;20047;-90
2023/01/15 02:52:26;;;;;;;15.57;3.33;;;;;;;;;;4923192;29;20134;-90
2023/01/15 02:54:55;;;;;;;12.00;2.47;;;;;;;;;;4922353;28;20098;-89
2023/01/15 02:57:23;;;;;;;17.08;2.40;;;;;;;;;;4921946;28;20051;-92
2023/01/15 02:59:49;;;;;;;4.82;2.72;;;;;;;;;;4938153;29;20047;-92
2023/01/15 03:02:19;;;;;;;6.75;2.38;;;;;;;;;;4922212;29;20067;-92
2023/01/15 03:05:00;;;;;;;8.90;2.85;;;;;;;;;;4938521;29;20059;-92
2023/01/15 03:07:47;;;;;;;11.85;2.45;;;;;;;;;;4922700;28;20058;-93
2023/01/15 03:10:13;;;;;;;7.72;2.85;;;;;;;;;;4922356;28;20058;-92
2023/01/15 03:13:02;;;;;;;8.52;2.05;;;;;;;;;;4938941;29;20044;-91
2023/01/15 03:18:36;;;;;;;9.00;1.95;;;;;;;;;;4935434;29;20420;-91
2023/01/15 03:21:05;;;;;;;12.38;3.17;;;;;;;;;;4922384;29;20078;-91
2023/01/15 03:23:35;;;;;;;11.02;2.78;;;;;;;;;;4922329;28;20043;-91
2023/01/15 03:26:01;;;;;;;15.60;3.63;;;;;;;;;;4937860;28;20082;-90
2023/01/15 03:28:31;;;;;;;6.65;2.60;;;;;;;;;;4937874;28;20400;-91
2023/01/15 03:30:58;;;;;;;11.05;2.35;;;;;;;;;;4938204;28;20511;-90
2023/01/15 03:33:25;;;;;;;8.45;2.67;;;;;;;;;;4922451;28;20089;-93
2023/01/15 03:35:54;;;;;;;7.65;2.05;;;;;;;;;;4922701;29;20047;-93
2023/01/15 03:38:22;;;;;;;3.60;1.95;;;;;;;;;;4922464;28;20057;-95
2023/01/15 03:40:52;;;;;;;13.45;2.92;;;;;;;;;;4938031;29;20048;-93
2023/01/15 03:46:08;;;;;;;19.73;2.42;;;;;;;;;;4938778;28;20059;-94
2023/01/15 03:48:36;;;;;;;7.47;2.47;;;;;;;;;;4922031;29;20054;-92
2023/01/15 03:51:13;;;;;;;9.32;2.20;;;;;;;;;;4922273;29;20505;-91
2023/01/15 03:53:48;;;;;;;10.88;2.35;;;;;;;;;;4922208;28;20043;-91
2023/01/15 03:56:29;;;;;;;13.52;2.65;;;;;;;;;;4922244;29;20518;-92
2023/01/15 03:59:11;;;;;;;16.13;2.80;;;;;;;;;;4922028;28;20055;-94
2023/01/15 04:01:38;;;;;;;6.57;1.90;;;;;;;;;;4922049;29;20059;-93
2023/01/15 04:04:08;;;;;;;7.57;2.70;;;;;;;;;;4938410;28;20058;-91
2023/01/15 04:06:35;;;;;;;12.88;2.70;;;;;;;;;;4922293;28;20050;-91
2023/01/15 04:09:04;;;;;;;8.75;2.15;;;;;;;;;;4923372;28;20048;-91
2023/01/15 04:11:30;;;;;;;7.30;1.90;;;;;;;;;;4925741;29;20050;-93
2023/01/15 04:13:56;;;;;;;8.82;2.30;;;;;;;;;;4925730;29;20051;-90
2023/01/15 04:16:26;;;;;;;11.95;2.22;;;;;;;;;;4941607;28;20492;-90
2023/01/15 04:18:52;;;;;;;12.45;3.17;;;;;;;;;;4925163;29;20083;-90
2023/01/15 04:21:18;;;;;;;8.63;2.25;;;;;;;;;;4925013;28;20079;-90
2023/01/15 04:23:45;;;;;;;12.38;2.40;;;;;;;;;;4940877;28;20137;-91
2023/01/15 04:26:11;;;;;;;6.45;2.58;;;;;;;;;;4924968;29;20078;-91
2023/01/15 04:28:37;;;;;;;5.93;2.90;;;;;;;;;;4940795;28;20086;-91
2023/01/15 04:31:03;;;;;;;5.68;3.05;;;;;;;;;;4925299;29;20043;-92
2023/01/15 04:33:29;;;;;;;14.45;2.08;;;;;;;;;;4940742;29;20504;-92
2023/01/15 04:35:58;;;;;;;8.73;2.03;;;;;;;;;;4925220;28;20047;-92
2023/01/15 04:38:24;;;;;;;5.78;2.00;;;;;;;;;;4925064;29;20113;-92
2023/01/15 04:46:21;;;;;;;7.65;2.67;;;;;;;;;;4940586;29;20059;-92
2023/01/15 04:48:47;;;;;;;6.93;1.65;;;;;;;;;;4924909;29;20093;-92
2023/01/15 04:51:13;;;;;;;11.10;3.05;;;;;;;;;;4924591;28;20081;-92
2023/01/15 04:53:39;;;;;;;16.70;3.13;;;;;;;;;;4940755;29;20086;-91
2023/01/15 04:56:05;;;;;;;10.82;2.17;;;;;;;;;;4924603;28;20043;-92
2023/01/15 04:58:32;;;;;;;7.75;2.08;;;;;;;;;;4925226;28;20053;-93
2023/01/15 05:00:59;;;;;;;5.38;3.47;;;;;;;;;;4924823;28;20039;-91
2023/01/15 05:03:28;;;;;;;15.32;2.20;;;;;;;;;;4940330;28;20059;-91
2023/01/15 05:05:54;;;;;;;8.13;2.08;;;;;;;;;;4924696;29;20047;-93
2023/01/15 05:08:20;;;;;;;7.35;2.45;;;;;;;;;;4924729;29;20043;-90
2023/01/15 05:10:46;;;;;;;6.80;2.15;;;;;;;;;;4927208;28;20083;-91
2023/01/15 05:13:12;;;;;;;5.93;2.38;;;;;;;;;;4941898;29;20785;-90
2023/01/15 05:15:41;;;;;;;8.98;2.35;;;;;;;;;;4943608;28;20051;-94
2023/01/15 05:18:07;;;;;;;10.15;2.45;;;;;;;;;;4944188;28;20114;-90
2023/01/15 05:20:37;;;;;;;10.50;2.00;;;;;;;;;;4943580;28;20048;-92
2023/01/15 05:23:03;;;;;;;6.60;2.88;;;;;;;;;;4924970;28;20054;-93
2023/01/15 05:25:29;;;;;;;9.95;2.53;;;;;;;;;;4925023;29;20382;-95
2023/01/15 05:27:55;;;;;;;3.20;1.48;;;;;;;;;;4940369;29;20559;-95
2023/01/15 05:30:21;;;;;;;5.72;2.38;;;;;;;;;;4939889;28;20402;-90
2023/01/15 05:32:47;;;;;;;4.53;1.48;;;;;;;;;;4939820;28;20141;-91
2023/01/15 05:35:13;;;;;;;5.32;1.88;;;;;;;;;;4923717;28;20044;-90
2023/01/15 05:37:39;;;;;;;6.03;2.13;;;;;;;;;;4923679;28;20046;-91
2023/01/15 05:40:05;;;;;;;12.80;2.17;;;;;;;;;;4923580;28;20138;-90
2023/01/15 05:42:31;;;;;;;7.53;2.22;;;;;;;;;;4924026;28;20039;-91
2023/01/15 05:44:57;;;;;;;6.18;1.83;;;;;;;;;;4923957;29;20074;-90
2023/01/15 05:47:23;;;;;;;9.50;3.58;;;;;;;;;;4924161;28;20055;-90
2023/01/15 05:49:50;;;;;;;14.70;2.20;;;;;;;;;;4939441;28;20138;-90
2023/01/15 05:52:16;;;;;;;6.07;2.70;;;;;;;;;;4939168;28;20514;-90
2023/01/15 05:54:42;;;;;;;7.70;2.70;;;;;;;;;;4939179;29;20061;-91
2023/01/15 05:57:10;;;;;;;13.75;2.63;;;;;;;;;;4939266;29;20040;-90
2023/01/15 05:59:36;;;;;;;6.72;2.72;;;;;;;;;;4923523;29;20051;-91
2023/01/15 06:02:02;;;;;;;11.20;2.65;;;;;;;;;;4939015;29;20048;-91
2023/01/15 06:04:28;;;;;;;18.83;4.53;;;;;;;;;;4923742;28;20483;-91
2023/01/15 06:06:55;;;;;;;2.25;1.25;;;;;;;;;;4938805;28;20444;-93
2023/01/15 06:09:21;;;;;;;8.52;2.80;;;;;;;;;;4923440;28;20051;-90
2023/01/15 06:11:48;;;;;;;10.60;2.00;;;;;;;;;;4938979;28;20177;-90
2023/01/15 06:14:14;;;;;;;8.43;2.13;;;;;;;;;;4939077;29;20141;-92
2023/01/15 06:16:40;;;;;;;7.07;2.20;;;;;;;;;;4938916;29;20123;-90
2023/01/15 06:19:07;;;;;;;13.00;2.30;;;;;;;;;;4938761;28;20043;-90
2023/01/15 06:21:35;;;;;;;11.40;2.22;;;;;;;;;;4939047;28;20051;-90
2023/01/15 06:24:01;;;;;;;6.40;2.40;;;;;;;;;;4922718;28;20555;-91
2023/01/15 06:26:27;;;;;;;7.68;2.00;;;;;;;;;;4938811;28;20054;-90
2023/01/15 06:28:53;;;;;;;7.03;1.90;;;;;;;;;;4923478;28;20047;-94
2023/01/15 06:31:21;;;;;;;6.13;1.77;;;;;;;;;;4939421;28;20090;-90
2023/01/15 06:33:47;;;;;;;9.88;1.88;;;;;;;;;;4923072;29;20047;-92
2023/01/15 06:36:15;;;;;;;5.45;2.00;;;;;;;;;;4923512;29;20051;-94
2023/01/15 06:38:42;;;;;;;6.43;1.92;;;;;;;;;;4923035;29;20051;-95
2023/01/15 06:49:28;;;;;;;18.48;2.63;;;;;;;;;;4939400;28;20138;-95
2023/01/15 06:51:54;;;;;;;8.30;2.28;;;;;;;;;;4939235;28;20058;-91
2023/01/15 06:54:20;;;;;;;4.63;1.40;;;;;;;;;;4938424;29;20043;-90
2023/01/15 06:56:46;;;;;;;3.83;1.23;;;;;;;;;;4923709;28;20054;-95
2023/01/15 06:59:12;;;;;;;6.60;2.22;;;;;;;;;;4922475;28;20051;-94
2023/01/15 07:01:38;;;;;;;7.28;2.45;;;;;;;;;;4922489;28;20472;-95
2023/01/15 07:04:05;;;;;;;13.93;2.47;;;;;;;;;;4922496;28;20055;-90
2023/01/15 07:06:31;;;;;;;7.18;1.92;;;;;;;;;;4939134;28;20047;-95
2023/01/15 07:08:57;;;;;;;10.10;2.45;;;;;;;;;;4922811;28;20039;-94
2023/01/15 07:11:23;;;;;;;12.32;2.42;;;;;;;;;;4923241;29;20047;-95
2023/01/15 07:13:49;;;;;;;7.72;2.38;;;;;;;;;;4939049;29;20050;-95
2023/01/15 07:16:27;;;;;;;5.43;1.58;;;;;;;;;;4938623;28;20146;-94
2023/01/15 07:18:57;;;;;;;6.65;2.22;;;;;;;;;;4938814;28;20107;-94
2023/01/15 07:21:23;;;;;;;7.18;2.75;;;;;;;;;;4923085;29;20050;-96
2023/01/15 07:23:49;;;;;;;12.23;2.13;;;;;;;;;;4927615;29;20496;-93
2023/01/15 07:26:15;;;;;;;6.88;1.60;;;;;;;;;;4929031;28;20047;-94
2023/01/15 07:28:41;;;;;;;9.15;2.03;;;;;;;;;;4926660;28;20106;-94
2023/01/15 07:31:07;;;;;;;4.65;1.30;;;;;;;;;;4943298;28;20043;-95
2023/01/15 07:33:33;;;;;;;6.75;1.75;;;;;;;;;;4926662;28;20047;-95
2023/01/15 07:36:03;;;;;;;6.15;1.50;;;;;;;;;;4927243;28;20047;-94
2023/01/15 07:38:29;;;;;;;7.43;1.92;;;;;;;;;;4938865;28;20052;-89
2023/01/15 07:51:55;;;;;;;8.57;1.83;;;;;;;;;;4942191;29;20058;-92
2023/01/15 07:54:21;;;;;;;5.88;1.85;;;;;;;;;;4926118;28;20065;-92
2023/01/15 07:56:47;;;;;;;9.98;1.95;;;;;;;;;;4942898;29;20047;-92
2023/01/15 07:59:13;;;;;;;7.85;1.92;;;;;;;;;;4942115;29;20151;-92
2023/01/15 08:01:39;;;;;;;10.00;1.92;;;;;;;;;;4942403;29;20082;-92
2023/01/15 08:04:05;;;;;;;4.68;1.33;;;;;;;;;;4941977;28;20050;-90
2023/01/15 08:06:32;;;;;;;5.60;1.98;;;;;;;;;;4941623;29;20126;-90
2023/01/15 08:08:58;;;;;;;27.67;3.72;;;;;;;;;;4925596;29;20058;-92
2023/01/15 08:16:54;;;;;;;9.45;1.40;;;;;;;;;;4940974;29;20134;-92
2023/01/15 08:19:20;;;;;;;11.63;1.85;;;;;;;;;;4940994;29;20423;-90
2023/01/15 08:21:46;;;;;;;6.97;2.60;;;;;;;;;;4941762;29;20130;-90
2023/01/15 08:24:12;;;;;;;9.27;1.85;;;;;;;;;;4941182;28;20070;-91
2023/01/15 08:26:39;;;;;;;5.47;2.15;;;;;;;;;;4940777;28;20040;-91
2023/01/15 08:29:05;;;;;;;7.88;1.63;;;;;;;;;;4940889;28;20467;-90
2023/01/15 08:31:31;;;;;;;4.15;1.63;;;;;;;;;;4941043;29;20039;-91
2023/01/15 08:33:57;;;;;;;13.07;1.80;;;;;;;;;;4940954;29;20047;-91
2023/01/15 08:36:23;;;;;;;9.80;2.85;;;;;;;;;;4925594;29;20047;-92
2023/01/15 08:38:49;;;;;;;12.75;2.58;;;;;;;;;;4940880;29;20055;-91
2023/01/15 08:41:15;;;;;;;7.82;2.63;;;;;;;;;;4924925;29;20053;-91
2023/01/15 08:43:41;;;;;;;3.90;1.77;;;;;;;;;;4925058;29;20078;-91
2023/01/15 08:46:07;;;;;;;7.93;1.65;;;;;;;;;;4925284;29;20105;-92
2023/01/15 08:48:34;;;;;;;9.25;1.63;;;;;;;;;;4940719;29;20047;-90
2023/01/15 08:51:03;;;;;;;12.00;2.22;;;;;;;;;;4924700;28;20046;-91
2023/01/15 08:53:29;;;;;;;11.07;1.90;;;;;;;;;;4940711;29;20111;-90
2023/01/15 08:55:55;;;;;;;8.27;2.80;;;;;;;;;;4940370;29;20761;-89
2023/01/15 08:58:21;;;;;;;6.65;2.60;;;;;;;;;;4940454;28;20070;-88
2023/01/15 09:00:47;;;;;;;8.00;1.92;;;;;;;;;;4924267;28;20078;-89
2023/01/15 09:03:14;;;;;;;3.90;1.75;;;;;;;;;;4924249;28;20062;-90
2023/01/15 09:05:40;;;;;;;12.77;2.28;;;;;;;;;;4940661;29;20087;-90
2023/01/15 09:08:07;;;;;;;6.70;1.75;;;;;;;;;;4924516;28;20043;-89
2023/01/15 09:10:33;;;;;;;7.38;1.77;;;;;;;;;;4924500;29;20098;-90
2023/01/15 09:13:00;;;;;;;5.13;1.77;;;;;;;;;;4924840;29;20082;-90
2023/01/15 09:15:27;;;;;;;6.55;1.20;;;;;;;;;;4923954;28;20054;-89
2023/01/15 09:17:54;;;;;;;6.43;1.85;;;;;;;;;;4923925;29;20126;-90
2023/01/15 09:20:20;;;;;;;8.77;1.70;;;;;;;;;;4939734;29;20043;-89
2023/01/15 09:22:47;;;;;;;8.50;2.25;;;;;;;;;;4939575;29;20624;-90
2023/01/15 09:25:15;;;;;;;10.13;2.75;;;;;;;;;;4939958;28;20058;-90
2023/01/15 09:27:41;;;;;;;3.38;1.85;;;;;;;;;;4923640;28;20051;-91
2023/01/15 09:30:08;;;;;;;6.30;2.00;;;;;;;;;;4939868;29;20050;-89
2023/01/15 09:32:34;;;;;;;3.70;1.77;;;;;;;;;;4939378;29;20046;-90
2023/01/15 09:35:01;;;;;;;6.70;2.05;;;;;;;;;;4939531;28;20047;-90
2023/01/15 09:37:27;;;;;;;5.47;3.10;;;;;;;;;;4940042;29;20134;-91
2023/01/15 09:39:53;;;;;;;7.45;2.00;;;;;;;;;;4940092;29;20484;-91
2023/01/15 09:42:19;;;;;;;8.30;1.70;;;;;;;;;;4941718;29;20051;-94
2023/01/15 09:44:54;;;;;;;8.48;2.05;;;;;;;;;;4925889;29;20159;-91
2023/01/15 09:47:25;;;;;;;4.22;1.67;;;;;;;;;;4925299;29;20074;-90
2023/01/15 09:50:01;;;;;;;10.18;2.70;;;;;;;;;;4925530;28;20117;-93
2023/01/15 09:52:47;;;;;;;7.90;2.53;;;;;;;;;;4924401;28;20048;-91
2023/01/15 09:55:16;;;;;;;4.38;1.42;;;;;;;;;;4940080;29;20396;-94
2023/01/15 09:57:45;;;;;;;6.18;2.38;;;;;;;;;;4940316;28;20512;-91
2023/01/15 10:00:23;;;;;;;12.82;3.25;;;;;;;;;;4940312;29;20496;-89
2023/01/15 10:02:59;;;;;;;3.67;1.90;;;;;;;;;;4923779;28;20083;-91
2023/01/15 10:05:37;;;;;;;6.85;1.92;;;;;;;;;;4924149;29;20051;-90
2023/01/15 10:08:12;;;;;;;5.55;2.00;;;;;;;;;;4940057;28;20051;-94
2023/01/15 10:10:46;;;;;;;3.90;1.67;;;;;;;;;;4939684;28;20043;-91
2023/01/15 10:13:27;;;;;;;5.50;1.98;;;;;;;;;;4924570;29;20130;-90
2023/01/15 10:15:54;;;;;;;8.38;2.80;;;;;;;;;;4924006;29;20055;-94
2023/01/15 10:18:21;;;;;;;8.07;2.05;;;;;;;;;;4925136;28;20102;-91
2023/01/15 10:20:50;;;;;;;7.00;2.30;;;;;;;;;;4922986;28;20500;-89
2023/01/15 10:23:29;;;;;;;11.80;2.33;;;;;;;;;;4923035;28;20511;-91
2023/01/15 10:26:02;;;;;;;8.98;1.48;;;;;;;;;;4923625;28;20093;-92
2023/01/15 10:28:29;;;;;;;8.68;1.95;;;;;;;;;;4924962;28;20043;-94
2023/01/15 10:30:56;;;;;;;6.32;1.90;;;;;;;;;;4925391;29;20054;-93
2023/01/15 10:33:35;;;;;;;8.43;2.47;;;;;;;;;;4922761;28;20091;-91
2023/01/15 10:36:03;;;;;;;13.50;1.85;;;;;;;;;;4922805;28;20047;-91
2023/01/15 10:38:46;;;;;;;11.98;2.95;;;;;;;;;;4922955;29;20050;-90
2023/01/15 10:41:12;;;;;;;22.42;2.80;;;;;;;;;;4922737;29;20090;-90
2023/01/15 10:43:59;;;;;;;11.77;1.90;;;;;;;;;;4922594;29;20090;-90
2023/01/15 10:46:31;;;;;;;6.18;1.75;;;;;;;;;;4922638;28;20054;-90
2023/01/15 10:48:59;;;;;;;9.38;2.38;;;;;;;;;;4922988;28;20381;-90
2023/01/15 10:51:41;;;;;;;9.10;2.38;;;;;;;;;;4938422;28;20488;-89
2023/01/15 10:54:13;;;;;;;6.70;1.92;;;;;;;;;;4922926;28;20055;-92
2023/01/15 10:56:45;;;;;;;7.03;2.15;;;;;;;;;;4922730;29;20559;-91
2023/01/15 10:59:23;;;;;;;4.78;1.58;;;;;;;;;;4922655;29;20050;-90
2023/01/15 11:01:51;;;;;;;13.10;2.17;;;;;;;;;;4922410;29;20485;-89
2023/01/15 11:04:17;;;;;;;6.55;1.95;;;;;;;;;;4938011;29;20138;-89
2023/01/15 11:06:43;;;;;;;6.35;1.33;;;;;;;;;;4937907;28;20040;-89
2023/01/15 11:09:17;;;;;;;16.75;3.05;;;;;;;;;;4938361;29;20086;-90
2023/01/15 11:20:27;;;;;;;9.02;3.08;;;;;;;;;;4940705;28;20058;-90
2023/01/15 11:22:55;;;;;;;6.10;2.03;;;;;;;;;;4942319;28;20492;-91
2023/01/15 11:25:25;;;;;;;4.55;2.83;;;;;;;;;;4942600;28;20062;-89
2023/01/15 11:27:51;;;;;;;11.43;2.28;;;;;;;;;;4926170;28;20086;-90
2023/01/15 11:30:29;;;;;;;5.93;2.10;;;;;;;;;;4943213;29;20171;-91
2023/01/15 11:33:02;;;;;;;9.95;1.92;;;;;;;;;;4942386;28;20097;-89
2023/01/15 11:35:29;;;;;;;6.07;2.38;;;;;;;;;;4927416;28;20071;-92
2023/01/15 11:38:21;;;;;;;11.95;3.40;;;;;;;;;;4926105;28;20094;-89
2023/01/15 11:40:56;;;;;;;11.85;2.45;;;;;;;;;;4926110;28;20070;-89
2023/01/15 11:52:04;;;;;;;6.05;2.00;;;;;;;;;;4941376;29;20083;-90
2023/01/15 11:54:32;;;;;;;14.07;2.15;;;;;;;;;;4925920;28;20506;-88
2023/01/15 11:56:59;;;;;;;5.00;1.83;;;;;;;;;;4925990;29;20047;-89
2023/01/15 11:59:30;;;;;;;6.15;2.60;;;;;;;;;;4941796;29;20051;-88
2023/01/15 12:01:59;;;;;;;2.67;1.50;;;;;;;;;;4925310;28;20138;-89
2023/01/15 12:04:31;;;;;;;8.88;2.65;;;;;;;;;;4925596;29;20043;-88
2023/01/15 12:06:57;;;;;;;11.45;1.92;;;;;;;;;;4925752;29;20455;-88
2023/01/15 12:09:23;;;;;;;14.07;3.97;;;;;;;;;;4925800;28;20110;-89
2023/01/15 12:11:55;;;;;;;10.35;2.20;;;;;;;;;;4925582;28;20094;-89
2023/01/15 12:14:31;;;;;;;4.10;1.50;;;;;;;;;;4925174;28;20047;-88
2023/01/15 12:17:04;;;;;;;8.75;1.80;;;;;;;;;;4924905;29;20043;-86
2023/01/15 12:19:36;;;;;;;7.72;1.58;;;;;;;;;;4941540;28;20058;-87
2023/01/15 12:22:21;;;;;;;5.18;1.05;;;;;;;;;;4940793;29;20059;-87
2023/01/15 12:25:11;;;;;;;0.77;0.77;;;;;;;;;;4924872;28;20098;-88
2023/01/15 12:27:37;;;;;;;3.30;1.33;;;;;;;;;;4933026;28;20059;-88
2023/01/15 12:30:21;;;;;;;1.38;0.93;;;;;;;;;;4924262;29;20058;-87
2023/01/15 12:32:54;;;;;;;2.33;1.00;;;;;;;;;;4925478;29;20047;-88
2023/01/15 12:35:31;;;;;;;2.53;1.45;;;;;;;;;;4925016;28;20113;-89
2023/01/15 12:38:01;;;;;;;2.53;1.60;;;;;;;;;;4925182;28;20444;-89
2023/01/15 12:40:42;;;;;;;3.75;1.40;;;;;;;;;;4924649;28;20043;-89
2023/01/15 12:46:00;;;;;;;3.75;1.55;;;;;;;;;;4940616;28;20134;-90
2023/01/15 12:48:33;;;;;;;8.02;1.98;;;;;;;;;;4924546;29;20098;-91
2023/01/15 12:51:03;;;;;;;2.13;1.30;;;;;;;;;;4925246;28;20046;-88
2023/01/15 12:53:36;;;;;;;3.60;1.65;;;;;;;;;;4940501;28;20051;-90
2023/01/15 12:56:11;;;;;;;3.88;1.25;;;;;;;;;;4924728;28;20874;-88
2023/01/15 12:58:41;;;;;;;8.52;1.42;;;;;;;;;;4924424;28;20078;-89
2023/01/15 13:01:13;;;;;;;5.63;1.80;;;;;;;;;;4924053;29;20500;-89
2023/01/15 13:03:49;;;;;;;4.20;1.60;;;;;;;;;;4923940;28;20142;-88
2023/01/15 13:06:16;;;;;;;5.78;1.90;;;;;;;;;;4940082;28;20039;-87
2023/01/15 13:08:45;;;;;;;5.57;1.85;;;;;;;;;;4924430;29;20082;-88
2023/01/15 13:11:12;;;;;;;3.42;1.73;;;;;;;;;;4940942;28;20047;-88
2023/01/15 13:13:39;;;;;;;5.63;2.60;;;;;;;;;;4924249;28;20420;-88
2023/01/15 13:16:05;;;;;;;7.80;1.90;;;;;;;;;;4925677;28;20097;-88
2023/01/15 13:18:36;;;;;;;5.47;1.67;;;;;;;;;;4926250;28;20047;-88
2023/01/15 13:21:23;;;;;;;9.55;2.10;;;;;;;;;;4925163;29;20079;-88
2023/01/15 13:23:49;;;;;;;8.65;1.58;;;;;;;;;;4924023;28;20058;-89
2023/01/15 13:26:16;;;;;;;5.93;1.45;;;;;;;;;;4923843;29;20048;-89
2023/01/15 13:28:52;;;;;;;7.72;1.73;;;;;;;;;;4940588;29;20492;-90
2023/01/15 13:31:31;;;;;;;5.50;1.80;;;;;;;;;;4940810;29;20138;-90
2023/01/15 13:33:58;;;;;;;5.18;1.55;;;;;;;;;;4924449;29;20055;-92
2023/01/15 13:36:25;;;;;;;5.07;1.45;;;;;;;;;;4940657;28;20489;-91
2023/01/15 13:38:53;;;;;;;4.38;1.25;;;;;;;;;;4925589;29;20043;-92
2023/01/15 13:44:11;;;;;;;1.05;0.60;;;;;;;;;;4949569;28;20043;-89
2023/01/15 13:46:43;;;;;;;2.20;0.77;;;;;;;;;;4965091;28;20142;-88
2023/01/15 13:49:21;;;;;;;0.60;0.60;;;;;;;;;;4965127;28;20043;-88
2023/01/15 13:51:52;;;;;;;2.30;0.70;;;;;;;;;;4964127;28;20047;-89
2023/01/15 13:54:22;;;;;;;6.82;1.15;;;;;;;;;;4946699;29;20081;-88
2023/01/15 13:56:48;;;;;;;0.70;0.70;;;;;;;;;;4945817;28;20046;-89
2023/01/15 13:59:32;;;;;;;2.05;0.90;;;;;;;;;;4942434;28;20102;-90
2023/01/15 14:01:58;;;;;;;6.72;1.42;;;;;;;;;;4926667;28;20149;-91
2023/01/15 14:04:51;;;;;;;2.67;1.30;;;;;;;;;;4926469;28;20050;-89
2023/01/15 14:07:22;;;;;;;3.15;2.00;;;;;;;;;;4922480;28;20087;-88
2023/01/15 14:09:49;;;;;;;7.63;1.50;;;;;;;;;;4939421;28;20047;-89
2023/01/15 14:12:35;;;;;;;4.72;1.63;;;;;;;;;;4939356;29;20051;-88
2023/01/15 14:15:20;;;;;;;5.43;2.10;;;5.40;99.90;;;;;;4939082;28;20051;-91
2023/01/15 14:17:58;;;;;;;6.50;1.85;;;;;;;;;;4940044;28;20050;-89
2023/01/15 14:20:29;;;;;;;7.20;2.22;;;;;;;;;;4923784;29;20448;-91
2023/01/15 14:23:07;;;;;;;6.70;4.07;;;;;;;;;;4923541;29;20055;-92
2023/01/15 14:25:40;;;;;;;14.10;3.03;;;;;;;;;;4923234;29;20130;-90
2023/01/15 14:28:12;;;;;;;6.68;2.70;;;;;;;;;;4939501;28;20194;-89
2023/01/15 14:30:56;;;;;;;7.43;3.72;;;;;;;;;;4938781;28;20122;-89
2023/01/15 14:33:41;;;;;;;7.63;3.13;;;;;;;;;;4923006;29;20051;-88
2023/01/15 14:36:17;;;;;;;4.85;2.13;;;;;;;;;;4923413;28;20078;-89
2023/01/15 14:38:52;;;;;;;10.38;3.55;;;;;;;;;;4939352;29;20378;-89
2023/01/15 14:41:25;;;;;;;7.93;2.35;;;;;;;;;;4940170;28;20102;-91
2023/01/15 14:43:52;;;;;;;12.55;3.53;;;;;;;;;;4923422;28;20050;-89
2023/01/15 14:46:24;;;;;;;11.68;2.38;;;;;;;;;;4954831;28;20051;-90
2023/01/15 14:48:50;;;;;;;11.75;2.15;;;;;;;;;;4938824;28;20091;-88
2023/01/15 14:51:17;;;;;;;4.95;2.25;;;;;;;;;;4957560;28;20078;-88
2023/01/15 14:53:43;;;;;;;6.53;2.03;;;;;;;;;;4922721;28;20527;-90
2023/01/15 14:56:17;;;;;;;9.98;2.22;;;;;;;;;;4938472;29;20385;-88
2023/01/15 14:58:59;;;;;;;9.63;3.08;;;;;;;;;;4922590;29;20402;-89
2023/01/15 15:01:36;;;;;;;8.38;2.95;;;;;;;;;;4922367;29;20512;-88
2023/01/15 15:04:08;;;;;;;4.78;1.98;;;;;;;;;;4922608;29;20163;-88
2023/01/15 15:06:44;;;;;;;7.30;2.33;;;;;;;;;;4938551;28;20047;-89
2023/01/15 15:09:15;;;;;;;4.68;2.10;;;;;;;;;;4923785;29;20070;-90
2023/01/15 15:14:32;;;;;;;10.30;2.67;;;;;;;;;;4939593;29;20492;-90
2023/01/15 15:17:00;;;;;;;7.43;2.45;;;;;;;;;;4939331;28;20047;-89
2023/01/15 15:19:29;;;;;;;5.60;2.40;;;;;;;;;;4922484;28;20050;-89
2023/01/15 15:21:57;;;;;;;8.02;2.42;;;;;;;;;;4938339;28;20047;-90
2023/01/15 15:24:26;;;;;;;13.95;2.78;;;;;;;;;;4922082;28;20134;-90
2023/01/15 15:26:52;;;;;;;20.38;3.65;;;;;;;;;;4922729;29;20070;-89
2023/01/15 15:29:20;;;;;;;3.38;2.45;;;;;;;;;;4922454;28;20055;-89
2023/01/15 15:31:48;;;;;;;9.68;2.70;;;;;;;;;;4922595;29;20098;-89
2023/01/15 15:34:22;;;;;;;8.98;2.58;;;;;;;;;;4923140;29;20047;-90
2023/01/15 15:36:48;;;;;;;8.00;2.28;;;;;;;;;;4922826;28;20073;-88
2023/01/15 15:39:33;;;;;;;6.63;2.33;;;;;;;;;;4938065;28;20051;-91
2023/01/15 15:50:23;;;;;;;7.53;2.78;;;;;;;;;;4938710;29;20135;-93
2023/01/15 15:52:50;;;;;;;11.23;2.97;;;;;;;;;;4923162;28;20051;-89
2023/01/15 15:55:17;;;;;;;3.88;2.40;;;;;;;;;;4922967;28;20058;-91
2023/01/15 15:57:45;;;;;;;7.38;2.17;;;;;;;;;;4938605;29;20091;-92
2023/01/15 16:00:26;;;;;;;3.45;1.67;;;;;;;;;;4922556;29;20050;-89
2023/01/15 16:02:52;;;;;;;4.45;2.22;;;;;;;;;;4922418;28;20114;-91
2023/01/15 16:05:18;;;;;;;5.55;1.63;;;;;;;;;;4924197;28;20040;-91
2023/01/15 16:07:45;;;;;;;5.15;1.50;;;;;;;;;;4942172;29;20047;-90